sensor_id;sensor_type;location;lat;lon;timestamp;temperature;humidity
18041;DHT22;9145;48.588;9.250;2023-02-26T00:00:07;1.80;99.90
18041;DHT22;9145;48.588;9.250;2023-02-26T00:02:37;1.80;99.90
18041;DHT22;9145;48.588;9.250;2023-02-26T00:05:05;1.80;99.90
18041;DHT22;9145;48.588;9.250;2023-02-26T00:07:32;1.70;99.90
18041;DHT22;9145;48.588;9.250;2023-02-26T00:09:59;1.70;99.90
18041;DHT22;9145;48.588;9.250;2023-02-26T00:12:27;1.80;99.90
18041;DHT22;9145;48.588;9.250;2023-02-26T00:14:56;1.70;99.90
18041;DHT22;9145;48.588;9.250;2023-02-26T00:17:33;1.70;99.90
18041;DHT22;9145;48.588;9.250;2023-02-26T00:20:03;1.80;99.90
18041;DHT22;9145;48.588;9.250;2023-02-26T00:22:31;1.80;99.90
18041;DHT22;9145;48.588;9.250;2023-02-26T00:24:58;1.80;99.90
18041;DHT22;9145;48.588;9.250;2023-02-26T00:27:24;1.80;99.90
18041;DHT22;9145;48.588;9.250;2023-02-26T00:29:52;1.70;99.90
18041;DHT22;9145;48.588;9.250;2023-02-26T00:32:21;1.80;99.90
18041;DHT22;9145;48.588;9.250;2023-02-26T00:34:48;1.80;99.90
18041;DHT22;9145;48.588;9.250;2023-02-26T00:37:26;1.70;99.90
18041;DHT22;9145;48.588;9.250;2023-02-26T00:40:04;1.70;99.90
18041;DHT22;9145;48.588;9.250;2023-02-26T00:42:34;1.80;99.90
18041;DHT22;9145;48.588;9.250;2023-02-26T00:45:02;1.80;99.90
18041;DHT22;9145;48.588;9.250;2023-02-26T00:47:39;1.80;99.90
18041;DHT22;9145;48.588;9.250;2023-02-26T00:50:15;1.80;99.90
18041;DHT22;9145;48.588;9.250;2023-02-26T00:52:48;1.90;99.90
18041;DHT22;9145;48.588;9.250;2023-02-26T00:55:16;1.80;99.90
18041;DHT22;9145;48.588;9.250;2023-02-26T00:57:44;1.80;99.90
18041;DHT22;9145;48.588;9.250;2023-02-26T01:00:12;1.80;99.90
18041;DHT22;9145;48.588;9.250;2023-02-26T01:02:41;1.70;99.90
18041;DHT22;9145;48.588;9.250;2023-02-26T01:05:09;1.80;99.90
18041;DHT22;9145;48.588;9.250;2023-02-26T01:07:41;1.70;99.90
18041;DHT22;9145;48.588;9.250;2023-02-26T01:10:11;1.70;99.90
18041;DHT22;9145;48.588;9.250;2023-02-26T01:12:39;1.70;99.90
18041;DHT22;9145;48.588;9.250;2023-02-26T01:15:07;1.70;99.90
18041;DHT22;9145;48.588;9.250;2023-02-26T01:17:42;1.60;99.90
18041;DHT22;9145;48.588;9.250;2023-02-26T01:20:15;1.50;99.90
18041;DHT22;9145;48.588;9.250;2023-02-26T01:22:47;1.50;99.90
18041;DHT22;9145;48.588;9.250;2023-02-26T01:25:22;1.50;99.90
18041;DHT22;9145;48.588;9.250;2023-02-26T01:27:50;1.50;99.90
18041;DHT22;9145;48.588;9.250;2023-02-26T01:30:18;1.40;99.90
18041;DHT22;9145;48.588;9.250;2023-02-26T01:32:50;1.50;99.90
18041;DHT22;9145;48.588;9.250;2023-02-26T01:35:31;1.40;99.90
18041;DHT22;9145;48.588;9.250;2023-02-26T01:38:02;1.40;99.90
18041;DHT22;9145;48.588;9.250;2023-02-26T01:40:49;1.40;99.90
18041;DHT22;9145;48.588;9.250;2023-02-26T01:43:25;1.50;99.90
18041;DHT22;9145;48.588;9.250;2023-02-26T01:45:56;1.40;99.90
18041;DHT22;9145;48.588;9.250;2023-02-26T01:48:35;1.20;99.90
18041;DHT22;9145;48.588;9.250;2023-02-26T01:51:03;1.30;99.90
18041;DHT22;9145;48.588;9.250;2023-02-26T01:53:30;1.40;99.90
18041;DHT22;9145;48.588;9.250;2023-02-26T01:55:59;1.50;99.90
18041;DHT22;9145;48.588;9.250;2023-02-26T01:58:30;1.60;99.90
18041;DHT22;9145;48.588;9.250;2023-02-26T02:00:58;1.60;99.90
18041;DHT22;9145;48.588;9.250;2023-02-26T02:03:27;1.60;99.90
18041;DHT22;9145;48.588;9.250;2023-02-26T02:06:01;1.60;99.90
18041;DHT22;9145;48.588;9.250;2023-02-26T02:08:31;1.50;99.90
18041;DHT22;9145;48.588;9.250;2023-02-26T02:11:00;1.50;99.90
18041;DHT22;9145;48.588;9.250;2023-02-26T02:13:40;1.50;99.90
18041;DHT22;9145;48.588;9.250;2023-02-26T02:16:17;1.50;99.90
18041;DHT22;9145;48.588;9.250;2023-02-26T02:18:52;1.50;99.90
18041;DHT22;9145;48.588;9.250;2023-02-26T02:21:43;1.50;99.90
18041;DHT22;9145;48.588;9.250;2023-02-26T02:24:23;1.50;99.90
18041;DHT22;9145;48.588;9.250;2023-02-26T02:26:57;1.30;99.90
18041;DHT22;9145;48.588;9.250;2023-02-26T02:32:28;1.10;99.90
18041;DHT22;9145;48.588;9.250;2023-02-26T02:35:02;1.10;99.90
18041;DHT22;9145;48.588;9.250;2023-02-26T02:37:35;1.00;99.90
18041;DHT22;9145;48.588;9.250;2023-02-26T02:40:06;0.90;99.90
18041;DHT22;9145;48.588;9.250;2023-02-26T02:42:36;0.80;99.90
18041;DHT22;9145;48.588;9.250;2023-02-26T02:45:08;0.70;99.90
18041;DHT22;9145;48.588;9.250;2023-02-26T02:47:40;0.80;99.90
18041;DHT22;9145;48.588;9.250;2023-02-26T02:50:13;0.80;99.90
18041;DHT22;9145;48.588;9.250;2023-02-26T02:52:43;0.80;99.90
18041;DHT22;9145;48.588;9.250;2023-02-26T02:55:16;0.80;99.90
18041;DHT22;9145;48.588;9.250;2023-02-26T02:57:48;0.90;99.90
18041;DHT22;9145;48.588;9.250;2023-02-26T03:00:17;0.90;99.90
18041;DHT22;9145;48.588;9.250;2023-02-26T03:02:51;0.90;99.90
18041;DHT22;9145;48.588;9.250;2023-02-26T03:05:19;1.00;99.90
18041;DHT22;9145;48.588;9.250;2023-02-26T03:07:49;1.00;99.90
18041;DHT22;9145;48.588;9.250;2023-02-26T03:10:16;1.00;99.90
18041;DHT22;9145;48.588;9.250;2023-02-26T03:12:43;0.90;99.90
18041;DHT22;9145;48.588;9.250;2023-02-26T03:15:11;0.90;99.90
18041;DHT22;9145;48.588;9.250;2023-02-26T03:17:45;0.80;99.90
18041;DHT22;9145;48.588;9.250;2023-02-26T03:20:21;0.70;99.90
18041;DHT22;9145;48.588;9.250;2023-02-26T03:22:57;0.70;99.90
18041;DHT22;9145;48.588;9.250;2023-02-26T03:25:28;0.60;99.90
18041;DHT22;9145;48.588;9.250;2023-02-26T03:28:03;0.50;99.90
18041;DHT22;9145;48.588;9.250;2023-02-26T03:30:36;0.40;99.90
18041;DHT22;9145;48.588;9.250;2023-02-26T03:33:09;0.50;99.90
18041;DHT22;9145;48.588;9.250;2023-02-26T03:35:46;0.60;99.90
18041;DHT22;9145;48.588;9.250;2023-02-26T03:38:22;0.70;99.90
18041;DHT22;9145;48.588;9.250;2023-02-26T03:40:54;0.70;99.90
18041;DHT22;9145;48.588;9.250;2023-02-26T03:43:25;0.60;99.90
18041;DHT22;9145;48.588;9.250;2023-02-26T03:45:58;0.60;99.90
18041;DHT22;9145;48.588;9.250;2023-02-26T03:48:29;0.60;99.90
18041;DHT22;9145;48.588;9.250;2023-02-26T03:51:02;0.50;99.90
18041;DHT22;9145;48.588;9.250;2023-02-26T03:53:31;0.50;99.90
18041;DHT22;9145;48.588;9.250;2023-02-26T03:56:04;0.50;99.90
18041;DHT22;9145;48.588;9.250;2023-02-26T03:58:33;0.40;99.90
18041;DHT22;9145;48.588;9.250;2023-02-26T04:01:03;0.40;99.90
18041;DHT22;9145;48.588;9.250;2023-02-26T04:03:34;0.50;99.90
18041;DHT22;9145;48.588;9.250;2023-02-26T04:06:04;0.50;99.90
18041;DHT22;9145;48.588;9.250;2023-02-26T04:08:31;0.50;99.90
18041;DHT22;9145;48.588;9.250;2023-02-26T04:11:03;0.50;99.90
18041;DHT22;9145;48.588;9.250;2023-02-26T04:13:31;0.50;99.90
18041;DHT22;9145;48.588;9.250;2023-02-26T04:15:58;0.50;99.90
18041;DHT22;9145;48.588;9.250;2023-02-26T04:18:25;0.50;99.90
18041;DHT22;9145;48.588;9.250;2023-02-26T04:20:52;0.50;99.90
18041;DHT22;9145;48.588;9.250;2023-02-26T04:23:21;0.50;99.90
18041;DHT22;9145;48.588;9.250;2023-02-26T04:25:47;0.50;99.90
18041;DHT22;9145;48.588;9.250;2023-02-26T04:28:15;0.40;99.90
18041;DHT22;9145;48.588;9.250;2023-02-26T04:30:42;0.40;99.90
18041;DHT22;9145;48.588;9.250;2023-02-26T04:33:08;0.40;99.90
18041;DHT22;9145;48.588;9.250;2023-02-26T04:35:35;0.40;99.90
18041;DHT22;9145;48.588;9.250;2023-02-26T04:38:02;0.30;99.90
18041;DHT22;9145;48.588;9.250;2023-02-26T04:40:31;0.40;99.90
18041;DHT22;9145;48.588;9.250;2023-02-26T04:42:58;0.50;99.90
18041;DHT22;9145;48.588;9.250;2023-02-26T04:45:24;0.50;99.90
18041;DHT22;9145;48.588;9.250;2023-02-26T04:47:51;0.40;99.90
18041;DHT22;9145;48.588;9.250;2023-02-26T04:50:18;0.50;99.90
18041;DHT22;9145;48.588;9.250;2023-02-26T04:52:45;0.40;99.90
18041;DHT22;9145;48.588;9.250;2023-02-26T04:55:12;0.40;99.90
18041;DHT22;9145;48.588;9.250;2023-02-26T04:57:40;0.40;99.90
18041;DHT22;9145;48.588;9.250;2023-02-26T05:00:08;0.40;99.90
18041;DHT22;9145;48.588;9.250;2023-02-26T05:02:35;0.30;99.90
18041;DHT22;9145;48.588;9.250;2023-02-26T05:05:02;0.40;99.90
18041;DHT22;9145;48.588;9.250;2023-02-26T05:07:30;0.40;99.90
18041;DHT22;9145;48.588;9.250;2023-02-26T05:09:56;0.40;99.90
18041;DHT22;9145;48.588;9.250;2023-02-26T05:12:23;0.40;99.90
18041;DHT22;9145;48.588;9.250;2023-02-26T05:14:52;0.30;99.90
18041;DHT22;9145;48.588;9.250;2023-02-26T05:17:18;0.40;99.90
18041;DHT22;9145;48.588;9.250;2023-02-26T05:19:45;0.30;99.90
18041;DHT22;9145;48.588;9.250;2023-02-26T05:22:12;0.30;99.90
18041;DHT22;9145;48.588;9.250;2023-02-26T05:24:39;0.30;99.90
18041;DHT22;9145;48.588;9.250;2023-02-26T05:27:06;0.20;99.90
18041;DHT22;9145;48.588;9.250;2023-02-26T05:29:33;0.20;99.90
18041;DHT22;9145;48.588;9.250;2023-02-26T05:32:02;0.30;99.90
18041;DHT22;9145;48.588;9.250;2023-02-26T05:34:29;0.20;99.90
18041;DHT22;9145;48.588;9.250;2023-02-26T05:36:56;0.20;99.90
18041;DHT22;9145;48.588;9.250;2023-02-26T05:39:23;0.20;99.90
18041;DHT22;9145;48.588;9.250;2023-02-26T05:41:49;0.20;99.90
18041;DHT22;9145;48.588;9.250;2023-02-26T05:44:19;0.10;99.90
18041;DHT22;9145;48.588;9.250;2023-02-26T05:46:46;0.00;99.90
18041;DHT22;9145;48.588;9.250;2023-02-26T05:49:15;0.00;99.90
18041;DHT22;9145;48.588;9.250;2023-02-26T05:51:41;0.00;99.90
18041;DHT22;9145;48.588;9.250;2023-02-26T05:54:08;0.00;99.90
18041;DHT22;9145;48.588;9.250;2023-02-26T05:56:36;0.10;99.90
18041;DHT22;9145;48.588;9.250;2023-02-26T05:59:02;0.10;99.90
18041;DHT22;9145;48.588;9.250;2023-02-26T06:01:29;0.00;99.90
18041;DHT22;9145;48.588;9.250;2023-02-26T06:03:56;0.00;99.90
18041;DHT22;9145;48.588;9.250;2023-02-26T06:06:24;0.00;99.90
18041;DHT22;9145;48.588;9.250;2023-02-26T06:08:51;0.00;99.90
18041;DHT22;9145;48.588;9.250;2023-02-26T06:11:18;0.00;99.90
18041;DHT22;9145;48.588;9.250;2023-02-26T06:13:45;0.10;99.90
18041;DHT22;9145;48.588;9.250;2023-02-26T06:16:12;0.10;99.90
18041;DHT22;9145;48.588;9.250;2023-02-26T06:18:39;0.10;99.90
18041;DHT22;9145;48.588;9.250;2023-02-26T06:21:06;0.10;99.90
18041;DHT22;9145;48.588;9.250;2023-02-26T06:23:35;0.10;99.90
18041;DHT22;9145;48.588;9.250;2023-02-26T06:26:02;0.00;99.90
18041;DHT22;9145;48.588;9.250;2023-02-26T06:28:28;0.10;99.90
18041;DHT22;9145;48.588;9.250;2023-02-26T06:30:55;0.10;99.90
18041;DHT22;9145;48.588;9.250;2023-02-26T06:33:22;0.10;99.90
18041;DHT22;9145;48.588;9.250;2023-02-26T06:35:49;0.00;99.90
18041;DHT22;9145;48.588;9.250;2023-02-26T06:38:16;0.00;99.90
18041;DHT22;9145;48.588;9.250;2023-02-26T06:40:45;-0.10;99.90
18041;DHT22;9145;48.588;9.250;2023-02-26T06:43:12;0.00;99.90
18041;DHT22;9145;48.588;9.250;2023-02-26T06:45:39;0.00;99.90
18041;DHT22;9145;48.588;9.250;2023-02-26T06:48:06;-0.10;99.90
18041;DHT22;9145;48.588;9.250;2023-02-26T06:50:33;-0.10;99.90
18041;DHT22;9145;48.588;9.250;2023-02-26T06:52:59;-0.10;99.90
18041;DHT22;9145;48.588;9.250;2023-02-26T06:55:26;-0.10;99.90
18041;DHT22;9145;48.588;9.250;2023-02-26T06:57:55;0.00;99.90
18041;DHT22;9145;48.588;9.250;2023-02-26T07:00:23;0.10;99.90
18041;DHT22;9145;48.588;9.250;2023-02-26T07:02:51;0.20;99.90
18041;DHT22;9145;48.588;9.250;2023-02-26T07:05:18;0.20;99.90
18041;DHT22;9145;48.588;9.250;2023-02-26T07:07:45;0.20;99.90
18041;DHT22;9145;48.588;9.250;2023-02-26T07:10:12;0.30;99.90
18041;DHT22;9145;48.588;9.250;2023-02-26T07:12:39;0.20;99.90
18041;DHT22;9145;48.588;9.250;2023-02-26T07:15:08;0.20;99.90
18041;DHT22;9145;48.588;9.250;2023-02-26T07:17:34;0.30;99.90
18041;DHT22;9145;48.588;9.250;2023-02-26T07:20:01;0.40;99.90
18041;DHT22;9145;48.588;9.250;2023-02-26T07:22:34;0.40;99.90
18041;DHT22;9145;48.588;9.250;2023-02-26T07:25:01;0.40;99.90
18041;DHT22;9145;48.588;9.250;2023-02-26T07:27:28;0.40;99.90
18041;DHT22;9145;48.588;9.250;2023-02-26T07:29:55;0.40;99.90
18041;DHT22;9145;48.588;9.250;2023-02-26T07:32:23;0.50;99.90
18041;DHT22;9145;48.588;9.250;2023-02-26T07:34:50;0.50;99.90
18041;DHT22;9145;48.588;9.250;2023-02-26T07:37:17;0.50;99.90
18041;DHT22;9145;48.588;9.250;2023-02-26T07:39:44;0.60;99.90
18041;DHT22;9145;48.588;9.250;2023-02-26T07:42:12;0.60;99.90
18041;DHT22;9145;48.588;9.250;2023-02-26T07:44:38;0.70;99.90
18041;DHT22;9145;48.588;9.250;2023-02-26T07:47:05;0.80;99.90
18041;DHT22;9145;48.588;9.250;2023-02-26T07:49:33;0.70;99.90
18041;DHT22;9145;48.588;9.250;2023-02-26T07:52:00;0.60;99.90
18041;DHT22;9145;48.588;9.250;2023-02-26T07:54:27;0.50;99.90
18041;DHT22;9145;48.588;9.250;2023-02-26T07:56:54;0.50;99.90
18041;DHT22;9145;48.588;9.250;2023-02-26T07:59:21;0.60;99.90
18041;DHT22;9145;48.588;9.250;2023-02-26T08:01:48;0.80;99.90
18041;DHT22;9145;48.588;9.250;2023-02-26T08:04:15;0.90;99.90
18041;DHT22;9145;48.588;9.250;2023-02-26T08:06:43;1.00;99.90
18041;DHT22;9145;48.588;9.250;2023-02-26T08:09:10;1.00;99.90
18041;DHT22;9145;48.588;9.250;2023-02-26T08:11:37;1.00;99.90
18041;DHT22;9145;48.588;9.250;2023-02-26T08:14:05;1.00;99.90
18041;DHT22;9145;48.588;9.250;2023-02-26T08:16:31;1.00;99.90
18041;DHT22;9145;48.588;9.250;2023-02-26T08:18:58;1.00;99.90
18041;DHT22;9145;48.588;9.250;2023-02-26T08:21:25;0.90;99.90
18041;DHT22;9145;48.588;9.250;2023-02-26T08:23:54;0.90;99.90
18041;DHT22;9145;48.588;9.250;2023-02-26T08:26:20;0.90;99.90
18041;DHT22;9145;48.588;9.250;2023-02-26T08:28:48;1.00;99.90
18041;DHT22;9145;48.588;9.250;2023-02-26T08:31:14;1.10;99.90
18041;DHT22;9145;48.588;9.250;2023-02-26T08:33:42;1.10;99.90
18041;DHT22;9145;48.588;9.250;2023-02-26T08:36:09;1.20;99.90
18041;DHT22;9145;48.588;9.250;2023-02-26T08:38:37;1.20;99.90
18041;DHT22;9145;48.588;9.250;2023-02-26T08:41:05;1.10;99.90
18041;DHT22;9145;48.588;9.250;2023-02-26T08:43:32;1.20;99.90
18041;DHT22;9145;48.588;9.250;2023-02-26T08:45:59;1.30;99.90
18041;DHT22;9145;48.588;9.250;2023-02-26T08:48:26;1.30;99.90
18041;DHT22;9145;48.588;9.250;2023-02-26T08:50:53;1.30;99.90
18041;DHT22;9145;48.588;9.250;2023-02-26T08:53:20;1.20;99.90
18041;DHT22;9145;48.588;9.250;2023-02-26T08:55:47;1.30;99.90
18041;DHT22;9145;48.588;9.250;2023-02-26T08:58:16;1.20;99.90
18041;DHT22;9145;48.588;9.250;2023-02-26T09:00:43;1.20;99.90
18041;DHT22;9145;48.588;9.250;2023-02-26T09:03:10;1.20;99.90
18041;DHT22;9145;48.588;9.250;2023-02-26T09:05:37;1.20;99.90
18041;DHT22;9145;48.588;9.250;2023-02-26T09:08:05;1.20;99.90
18041;DHT22;9145;48.588;9.250;2023-02-26T09:10:32;1.20;99.90
18041;DHT22;9145;48.588;9.250;2023-02-26T09:12:59;1.30;99.90
18041;DHT22;9145;48.588;9.250;2023-02-26T09:15:27;1.50;99.90
18041;DHT22;9145;48.588;9.250;2023-02-26T09:17:54;1.50;99.90
18041;DHT22;9145;48.588;9.250;2023-02-26T09:20:21;1.60;99.90
18041;DHT22;9145;48.588;9.250;2023-02-26T09:22:48;1.80;99.90
18041;DHT22;9145;48.588;9.250;2023-02-26T09:25:15;1.90;99.90
18041;DHT22;9145;48.588;9.250;2023-02-26T09:27:42;1.90;99.90
18041;DHT22;9145;48.588;9.250;2023-02-26T09:30:10;2.00;99.90
18041;DHT22;9145;48.588;9.250;2023-02-26T09:32:38;2.00;99.90
18041;DHT22;9145;48.588;9.250;2023-02-26T09:35:05;2.00;99.90
18041;DHT22;9145;48.588;9.250;2023-02-26T09:37:33;2.00;99.90
18041;DHT22;9145;48.588;9.250;2023-02-26T09:39:59;2.00;99.90
18041;DHT22;9145;48.588;9.250;2023-02-26T09:42:45;2.00;99.90
18041;DHT22;9145;48.588;9.250;2023-02-26T09:45:23;1.90;99.90
18041;DHT22;9145;48.588;9.250;2023-02-26T09:47:53;1.90;99.90
18041;DHT22;9145;48.588;9.250;2023-02-26T09:50:24;2.00;99.90
18041;DHT22;9145;48.588;9.250;2023-02-26T09:52:55;2.10;99.90
18041;DHT22;9145;48.588;9.250;2023-02-26T09:55:27;2.40;99.90
18041;DHT22;9145;48.588;9.250;2023-02-26T09:57:59;2.60;99.90
18041;DHT22;9145;48.588;9.250;2023-02-26T10:00:31;2.80;99.90
18041;DHT22;9145;48.588;9.250;2023-02-26T10:03:15;2.90;99.90
18041;DHT22;9145;48.588;9.250;2023-02-26T10:05:56;2.80;99.90
18041;DHT22;9145;48.588;9.250;2023-02-26T10:08:32;2.90;99.90
18041;DHT22;9145;48.588;9.250;2023-02-26T10:11:06;2.90;99.90
18041;DHT22;9145;48.588;9.250;2023-02-26T10:13:37;3.10;99.90
18041;DHT22;9145;48.588;9.250;2023-02-26T10:16:11;3.30;99.90
18041;DHT22;9145;48.588;9.250;2023-02-26T10:18:42;3.50;99.90
18041;DHT22;9145;48.588;9.250;2023-02-26T10:21:13;3.90;99.90
18041;DHT22;9145;48.588;9.250;2023-02-26T10:23:43;3.60;99.90
18041;DHT22;9145;48.588;9.250;2023-02-26T10:26:17;3.40;99.90
18041;DHT22;9145;48.588;9.250;2023-02-26T10:28:53;3.20;99.90
18041;DHT22;9145;48.588;9.250;2023-02-26T10:31:27;3.30;99.90
18041;DHT22;9145;48.588;9.250;2023-02-26T10:34:04;3.20;99.90
18041;DHT22;9145;48.588;9.250;2023-02-26T10:36:40;2.90;99.90
18041;DHT22;9145;48.588;9.250;2023-02-26T10:39:20;2.80;99.90
18041;DHT22;9145;48.588;9.250;2023-02-26T10:41:50;2.90;99.90
18041;DHT22;9145;48.588;9.250;2023-02-26T10:44:23;3.10;99.90
18041;DHT22;9145;48.588;9.250;2023-02-26T10:46:56;3.10;99.90
18041;DHT22;9145;48.588;9.250;2023-02-26T10:49:39;3.10;99.90
18041;DHT22;9145;48.588;9.250;2023-02-26T10:52:13;3.10;99.90
18041;DHT22;9145;48.588;9.250;2023-02-26T10:54:47;3.10;99.90
18041;DHT22;9145;48.588;9.250;2023-02-26T10:57:19;3.10;99.90
18041;DHT22;9145;48.588;9.250;2023-02-26T10:59:48;3.00;99.90
18041;DHT22;9145;48.588;9.250;2023-02-26T11:02:34;2.90;99.90
18041;DHT22;9145;48.588;9.250;2023-02-26T11:05:07;2.80;99.90
18041;DHT22;9145;48.588;9.250;2023-02-26T11:07:39;2.70;99.90
18041;DHT22;9145;48.588;9.250;2023-02-26T11:10:13;2.70;99.90
18041;DHT22;9145;48.588;9.250;2023-02-26T11:12:41;2.80;99.90
18041;DHT22;9145;48.588;9.250;2023-02-26T11:15:12;2.90;99.90
18041;DHT22;9145;48.588;9.250;2023-02-26T11:17:40;3.00;99.90
18041;DHT22;9145;48.588;9.250;2023-02-26T11:20:16;3.00;99.90
18041;DHT22;9145;48.588;9.250;2023-02-26T11:22:46;3.10;99.90
18041;DHT22;9145;48.588;9.250;2023-02-26T11:25:17;3.10;99.90
18041;DHT22;9145;48.588;9.250;2023-02-26T11:27:46;3.00;99.90
18041;DHT22;9145;48.588;9.250;2023-02-26T11:30:16;3.00;99.90
18041;DHT22;9145;48.588;9.250;2023-02-26T11:32:44;3.00;99.90
18041;DHT22;9145;48.588;9.250;2023-02-26T11:35:18;3.00;99.90
18041;DHT22;9145;48.588;9.250;2023-02-26T11:37:48;3.00;99.90
18041;DHT22;9145;48.588;9.250;2023-02-26T11:40:17;2.80;99.90
18041;DHT22;9145;48.588;9.250;2023-02-26T11:42:50;2.80;99.90
18041;DHT22;9145;48.588;9.250;2023-02-26T11:45:19;2.90;99.90
18041;DHT22;9145;48.588;9.250;2023-02-26T11:47:47;3.00;99.90
18041;DHT22;9145;48.588;9.250;2023-02-26T11:50:19;3.20;99.90
18041;DHT22;9145;48.588;9.250;2023-02-26T11:52:54;3.10;99.90
18041;DHT22;9145;48.588;9.250;2023-02-26T11:55:26;3.20;99.90
18041;DHT22;9145;48.588;9.250;2023-02-26T11:57:55;3.30;99.90
18041;DHT22;9145;48.588;9.250;2023-02-26T12:00:29;3.40;99.90
18041;DHT22;9145;48.588;9.250;2023-02-26T12:02:59;3.50;99.90
18041;DHT22;9145;48.588;9.250;2023-02-26T12:05:30;3.40;99.90
18041;DHT22;9145;48.588;9.250;2023-02-26T12:07:57;3.20;99.90
18041;DHT22;9145;48.588;9.250;2023-02-26T12:10:28;3.30;99.90
18041;DHT22;9145;48.588;9.250;2023-02-26T12:13:06;3.40;99.90
18041;DHT22;9145;48.588;9.250;2023-02-26T12:15:38;3.40;99.90
18041;DHT22;9145;48.588;9.250;2023-02-26T12:18:22;3.40;99.90
18041;DHT22;9145;48.588;9.250;2023-02-26T12:21:02;3.40;99.90
18041;DHT22;9145;48.588;9.250;2023-02-26T12:23:59;3.40;99.90
18041;DHT22;9145;48.588;9.250;2023-02-26T12:26:32;3.50;99.90
18041;DHT22;9145;48.588;9.250;2023-02-26T12:29:27;3.60;99.90
18041;DHT22;9145;48.588;9.250;2023-02-26T12:32:20;3.70;99.90
18041;DHT22;9145;48.588;9.250;2023-02-26T12:38:01;3.80;99.90
18041;DHT22;9145;48.588;9.250;2023-02-26T12:40:52;3.70;99.90
18041;DHT22;9145;48.588;9.250;2023-02-26T12:43:30;3.80;99.90
18041;DHT22;9145;48.588;9.250;2023-02-26T12:46:04;3.70;99.90
18041;DHT22;9145;48.588;9.250;2023-02-26T12:52:09;3.70;99.90
18041;DHT22;9145;48.588;9.250;2023-02-26T12:54:50;3.60;99.90
18041;DHT22;9145;48.588;9.250;2023-02-26T12:58:01;3.50;99.90
18041;DHT22;9145;48.588;9.250;2023-02-26T13:00:39;3.70;99.90
18041;DHT22;9145;48.588;9.250;2023-02-26T13:03:46;3.70;99.90
18041;DHT22;9145;48.588;9.250;2023-02-26T13:06:43;3.70;99.90
18041;DHT22;9145;48.588;9.250;2023-02-26T13:09:23;3.60;99.90
18041;DHT22;9145;48.588;9.250;2023-02-26T13:12:03;3.60;99.90
18041;DHT22;9145;48.588;9.250;2023-02-26T13:14:42;3.50;99.90
18041;DHT22;9145;48.588;9.250;2023-02-26T13:17:20;3.50;99.90
18041;DHT22;9145;48.588;9.250;2023-02-26T13:19:54;3.50;99.90
18041;DHT22;9145;48.588;9.250;2023-02-26T13:22:24;3.50;99.90
18041;DHT22;9145;48.588;9.250;2023-02-26T13:24:56;3.50;99.90
18041;DHT22;9145;48.588;9.250;2023-02-26T13:27:28;3.50;99.90
18041;DHT22;9145;48.588;9.250;2023-02-26T13:30:05;3.60;99.90
18041;DHT22;9145;48.588;9.250;2023-02-26T13:32:37;3.70;99.90
18041;DHT22;9145;48.588;9.250;2023-02-26T13:35:18;3.80;99.90
18041;DHT22;9145;48.588;9.250;2023-02-26T13:37:48;3.90;99.90
18041;DHT22;9145;48.588;9.250;2023-02-26T13:40:39;4.00;99.90
18041;DHT22;9145;48.588;9.250;2023-02-26T13:43:20;4.00;99.90
18041;DHT22;9145;48.588;9.250;2023-02-26T13:45:54;3.90;99.90
18041;DHT22;9145;48.588;9.250;2023-02-26T13:48:33;3.80;99.90
18041;DHT22;9145;48.588;9.250;2023-02-26T13:51:06;3.60;99.90
18041;DHT22;9145;48.588;9.250;2023-02-26T13:53:57;3.60;99.90
18041;DHT22;9145;48.588;9.250;2023-02-26T13:56:53;3.40;99.90
18041;DHT22;9145;48.588;9.250;2023-02-26T13:59:47;3.20;99.90
18041;DHT22;9145;48.588;9.250;2023-02-26T14:02:46;3.20;99.90
18041;DHT22;9145;48.588;9.250;2023-02-26T14:05:32;3.30;99.90
18041;DHT22;9145;48.588;9.250;2023-02-26T14:08:21;3.40;99.90
18041;DHT22;9145;48.588;9.250;2023-02-26T14:10:56;3.80;99.90
18041;DHT22;9145;48.588;9.250;2023-02-26T14:13:32;4.10;99.90
18041;DHT22;9145;48.588;9.250;2023-02-26T14:16:03;4.20;99.90
18041;DHT22;9145;48.588;9.250;2023-02-26T14:18:40;4.20;99.90
18041;DHT22;9145;48.588;9.250;2023-02-26T14:21:26;4.30;99.90
18041;DHT22;9145;48.588;9.250;2023-02-26T14:23:56;4.40;99.90
18041;DHT22;9145;48.588;9.250;2023-02-26T14:26:24;4.40;99.90
18041;DHT22;9145;48.588;9.250;2023-02-26T14:28:57;4.30;99.90
18041;DHT22;9145;48.588;9.250;2023-02-26T14:31:53;4.20;99.90
18041;DHT22;9145;48.588;9.250;2023-02-26T14:34:22;4.20;99.90
18041;DHT22;9145;48.588;9.250;2023-02-26T14:36:52;4.30;99.90
18041;DHT22;9145;48.588;9.250;2023-02-26T14:39:27;4.30;99.90
18041;DHT22;9145;48.588;9.250;2023-02-26T14:42:01;4.40;99.90
18041;DHT22;9145;48.588;9.250;2023-02-26T14:44:33;4.50;99.90
18041;DHT22;9145;48.588;9.250;2023-02-26T14:47:03;4.50;99.90
18041;DHT22;9145;48.588;9.250;2023-02-26T14:49:32;4.40;99.90
18041;DHT22;9145;48.588;9.250;2023-02-26T14:52:23;4.40;99.90
18041;DHT22;9145;48.588;9.250;2023-02-26T14:55:17;4.30;99.90
18041;DHT22;9145;48.588;9.250;2023-02-26T14:57:55;4.00;99.90
18041;DHT22;9145;48.588;9.250;2023-02-26T15:00:34;4.10;99.90
18041;DHT22;9145;48.588;9.250;2023-02-26T15:03:27;4.10;99.90
18041;DHT22;9145;48.588;9.250;2023-02-26T15:06:10;4.70;99.90
18041;DHT22;9145;48.588;9.250;2023-02-26T15:08:50;5.30;99.90
18041;DHT22;9145;48.588;9.250;2023-02-26T15:11:39;5.60;99.90
18041;DHT22;9145;48.588;9.250;2023-02-26T15:14:43;5.70;99.90
18041;DHT22;9145;48.588;9.250;2023-02-26T15:17:24;5.70;99.90
18041;DHT22;9145;48.588;9.250;2023-02-26T15:20:10;5.50;99.90
18041;DHT22;9145;48.588;9.250;2023-02-26T15:22:52;5.30;99.90
18041;DHT22;9145;48.588;9.250;2023-02-26T15:25:31;5.20;99.90
18041;DHT22;9145;48.588;9.250;2023-02-26T15:27:59;5.00;99.90
18041;DHT22;9145;48.588;9.250;2023-02-26T15:30:27;4.90;99.90
18041;DHT22;9145;48.588;9.250;2023-02-26T15:32:57;4.80;99.90
18041;DHT22;9145;48.588;9.250;2023-02-26T15:35:27;4.60;99.90
18041;DHT22;9145;48.588;9.250;2023-02-26T15:37:58;4.50;99.90
18041;DHT22;9145;48.588;9.250;2023-02-26T15:40:28;4.50;99.90
18041;DHT22;9145;48.588;9.250;2023-02-26T15:42:56;4.50;99.90
18041;DHT22;9145;48.588;9.250;2023-02-26T15:45:26;4.40;99.90
18041;DHT22;9145;48.588;9.250;2023-02-26T15:47:56;4.40;99.90
18041;DHT22;9145;48.588;9.250;2023-02-26T15:50:28;4.20;99.90
18041;DHT22;9145;48.588;9.250;2023-02-26T15:52:57;4.20;99.90
18041;DHT22;9145;48.588;9.250;2023-02-26T15:55:25;4.10;99.90
18041;DHT22;9145;48.588;9.250;2023-02-26T15:57:53;4.00;99.90
18041;DHT22;9145;48.588;9.250;2023-02-26T16:00:21;3.90;99.90
18041;DHT22;9145;48.588;9.250;2023-02-26T16:02:51;3.90;99.90
18041;DHT22;9145;48.588;9.250;2023-02-26T16:05:19;3.90;99.90
18041;DHT22;9145;48.588;9.250;2023-02-26T16:07:47;4.00;99.90
18041;DHT22;9145;48.588;9.250;2023-02-26T16:10:25;3.90;99.90
18041;DHT22;9145;48.588;9.250;2023-02-26T16:12:53;3.90;99.90
18041;DHT22;9145;48.588;9.250;2023-02-26T16:15:27;3.90;99.90
18041;DHT22;9145;48.588;9.250;2023-02-26T16:17:55;3.90;99.90
18041;DHT22;9145;48.588;9.250;2023-02-26T16:20:25;3.90;99.90
18041;DHT22;9145;48.588;9.250;2023-02-26T16:22:56;3.80;99.90
18041;DHT22;9145;48.588;9.250;2023-02-26T16:25:27;3.70;99.90
18041;DHT22;9145;48.588;9.250;2023-02-26T16:27:57;3.60;99.90
18041;DHT22;9145;48.588;9.250;2023-02-26T16:30:29;3.50;99.90
18041;DHT22;9145;48.588;9.250;2023-02-26T16:32:57;3.40;99.90
18041;DHT22;9145;48.588;9.250;2023-02-26T16:35:29;3.30;99.90
18041;DHT22;9145;48.588;9.250;2023-02-26T16:38:11;3.30;99.90
18041;DHT22;9145;48.588;9.250;2023-02-26T16:40:40;3.30;99.90